Terminal Aerodrome Forecast
Issued by NWS Des Moines, IA

Home | Current Version | Previous Version | Text Only | Print | Product List | Glossary On
Versions: 1 2 3 4 5 6 7 8 9 10 11 12 13 14 15 16 17 18 19 20 21 22 23 24 25 26 27
000
FTUS43 KDMX 192326
TAFALO
TAF
KALO 192326Z 2000/2024 18019G26KT P6SM SKC
     FM200500 20011KT P6SM VCTS SCT035CB BKN060
     FM200800 24008KT P6SM SCT050 BKN100
     FM201700 29011KT P6SM SCT050=

USA.gov is the U.S. government's official web portal to all federal, state and local government web resources and services.